Time,TemperatureF,DewpointF,PressureIn,WindDirection,WindDirectionDegrees,WindSpeedMPH,WindSpeedGustMPH,Humidity,HourlyPrecipIn,Conditions,Clouds,dailyrainin,SoftwareType,DateUTC
2013-04-25 00:04:00,57.0,57.0,30.12,WNW,291,0.0,-999.0,98,-99.99,,,0.00,weatherlink.com 1.10,2013-04-25 04:04:00,
2013-04-25 00:19:00,56.1,56.0,30.12,East,89,3.0,-999.0,98,-99.99,,,0.00,weatherlink.com 1.10,2013-04-25 04:19:00,
2013-04-25 00:34:00,55.4,54.0,30.12,NW,313,3.0,-999.0,93,-99.99,,,0.00,weatherlink.com 1.10,2013-04-25 04:34:00,
2013-04-25 00:49:00,54.7,52.0,30.13,ENE,57,2.0,-999.0,89,-99.99,,,0.00,weatherlink.com 1.10,2013-04-25 04:49:00,
2013-04-25 01:04:00,53.6,50.0,30.13,NE,40,4.0,-999.0,88,-99.99,,,0.00,weatherlink.com 1.10,2013-04-25 05:04:00,
2013-04-25 01:19:00,52.6,49.0,30.12,NE,43,5.0,-999.0,87,-99.99,,,0.00,weatherlink.com 1.10,2013-04-25 05:19:00,
2013-04-25 01:34:00,51.8,48.0,30.12,NE,41,8.0,-999.0,87,-99.99,,,0.00,weatherlink.com 1.10,2013-04-25 05:34:00,
2013-04-25 01:49:00,51.0,47.0,30.12,NE,46,9.0,-999.0,87,-99.99,,,0.00,weatherlink.com 1.10,2013-04-25 05:49:00,
2013-04-25 02:04:00,50.1,47.0,30.12,North,5,13.0,-999.0,88,-99.99,,,0.00,weatherlink.com 1.10,2013-04-25 06:04:00,
2013-04-25 02:19:00,49.5,46.0,30.13,NW,304,9.0,-999.0,88,-99.99,,,0.00,weatherlink.com 1.10,2013-04-25 06:19:00,
2013-04-25 02:34:00,48.8,45.0,30.12,NNE,23,5.0,-999.0,88,-99.99,,,0.00,weatherlink.com 1.10,2013-04-25 06:34:00,
2013-04-25 02:49:00,48.0,44.0,30.12,SW,225,6.0,-999.0,87,-99.99,,,0.00,weatherlink.com 1.10,2013-04-25 06:49:00,
2013-04-25 03:04:00,47.2,44.0,30.11,North,352,9.0,-999.0,88,-99.99,,,0.00,weatherlink.com 1.10,2013-04-25 07:04:00,
2013-04-25 03:19:00,46.7,43.0,30.12,NNE,31,7.0,-999.0,88,-99.99,,,0.00,weatherlink.com 1.10,2013-04-25 07:19:00,
2013-04-25 03:34:00,46.4,43.0,30.13,WSW,248,2.0,-999.0,88,-99.99,,,0.00,weatherlink.com 1.10,2013-04-25 07:34:00,
2013-04-25 03:49:00,46.1,43.0,30.13,NW,321,13.0,-999.0,88,-99.99,,,0.00,weatherlink.com 1.10,2013-04-25 07:49:00,
2013-04-25 04:04:00,45.8,43.0,30.13,NW,314,9.0,-999.0,88,-99.99,,,0.00,weatherlink.com 1.10,2013-04-25 08:04:00,
2013-04-25 04:19:00,45.2,42.0,30.14,NW,320,7.0,-999.0,87,-99.99,,,0.00,weatherlink.com 1.10,2013-04-25 08:19:00,
2013-04-25 04:34:00,44.8,41.0,30.14,NW,304,8.0,-999.0,87,-99.99,,,0.00,weatherlink.com 1.10,2013-04-25 08:34:00,
2013-04-25 04:49:00,44.4,41.0,30.15,NW,326,15.0,-999.0,86,-99.99,,,0.00,weatherlink.com 1.10,2013-04-25 08:49:00,
2013-04-25 05:04:00,44.1,40.0,30.15,NW,304,15.0,-999.0,85,-99.99,,,0.00,weatherlink.com 1.10,2013-04-25 09:04:00,
2013-04-25 05:19:00,43.8,40.0,30.15,NW,326,10.0,-999.0,85,-99.99,,,0.00,weatherlink.com 1.10,2013-04-25 09:19:00,
2013-04-25 05:34:00,43.7,40.0,30.16,NW,320,8.0,-999.0,85,-99.99,,,0.00,weatherlink.com 1.10,2013-04-25 09:34:00,
2013-04-25 05:49:00,43.6,39.0,30.17,NW,326,12.0,-999.0,84,-99.99,,,0.00,weatherlink.com 1.10,2013-04-25 09:49:00,
2013-04-25 06:04:00,43.4,39.0,30.18,West,264,9.0,-999.0,83,-99.99,,,0.00,weatherlink.com 1.10,2013-04-25 10:04:00,
2013-04-25 06:19:00,43.5,38.0,30.18,NNW,327,9.0,-999.0,81,-99.99,,,0.00,weatherlink.com 1.10,2013-04-25 10:19:00,
2013-04-25 06:34:00,43.0,37.0,30.18,NE,51,8.0,-999.0,80,-99.99,,,0.00,weatherlink.com 1.10,2013-04-25 10:34:00,
2013-04-25 06:49:00,42.5,37.0,30.19,North,352,7.0,-999.0,80,-99.99,,,0.00,weatherlink.com 1.10,2013-04-25 10:49:00,
2013-04-25 07:04:00,42.3,37.0,30.20,WNW,293,13.0,-999.0,80,-99.99,,,0.00,weatherlink.com 1.10,2013-04-25 11:04:00,
2013-04-25 07:19:00,42.0,36.0,30.21,NNE,15,14.0,-999.0,80,-99.99,,,0.00,weatherlink.com 1.10,2013-04-25 11:19:00,
2013-04-25 07:34:00,41.9,36.0,30.22,NW,308,5.0,-999.0,80,-99.99,,,0.00,weatherlink.com 1.10,2013-04-25 11:34:00,
2013-04-25 07:49:00,41.9,36.0,30.23,NW,324,13.0,-999.0,79,-99.99,,,0.00,weatherlink.com 1.10,2013-04-25 11:49:00,
2013-04-25 08:04:00,42.5,35.0,30.23,NE,47,6.0,-999.0,75,-99.99,,,0.00,weatherlink.com 1.10,2013-04-25 12:04:00,
2013-04-25 08:19:00,43.5,35.0,30.24,NE,42,4.0,-999.0,71,-99.99,,,0.00,weatherlink.com 1.10,2013-04-25 12:19:00,
2013-04-25 08:34:00,44.3,35.0,30.24,North,353,10.0,-999.0,69,-99.99,,,0.00,weatherlink.com 1.10,2013-04-25 12:34:00,
2013-04-25 08:49:00,45.2,35.0,30.25,North,4,4.0,-999.0,67,-99.99,,,0.00,weatherlink.com 1.10,2013-04-25 12:49:00,
2013-04-25 09:04:00,46.1,34.0,30.25,NNE,18,3.0,-999.0,63,-99.99,,,0.00,weatherlink.com 1.10,2013-04-25 13:04:00,
2013-04-25 09:19:00,47.9,33.0,30.26,SSW,200,1.0,-999.0,56,-99.99,,,0.00,weatherlink.com 1.10,2013-04-25 13:19:00,
2013-04-25 09:34:00,50.0,32.0,30.26,SE,136,1.0,-999.0,50,-99.99,,,0.00,weatherlink.com 1.10,2013-04-25 13:34:00,
2013-04-25 09:49:00,51.8,32.0,30.27,ESE,115,0.0,-999.0,47,-99.99,,,0.00,weatherlink.com 1.10,2013-04-25 13:49:00,
2013-04-25 10:04:00,53.7,31.0,30.27,West,270,1.0,-999.0,42,-99.99,,,0.00,weatherlink.com 1.10,2013-04-25 14:04:00,
2013-04-25 10:19:00,54.9,36.0,30.27,NW,311,0.0,-999.0,49,-99.99,,,0.00,weatherlink.com 1.10,2013-04-25 14:19:00,
2013-04-25 10:35:00,57.1,37.0,30.27,SSW,204,1.0,-999.0,48,-99.99,,,0.00,weatherlink.com 1.10,2013-04-25 14:35:00,
2013-04-25 10:49:00,58.8,38.0,30.28,SE,134,0.0,-999.0,47,-99.99,,,0.00,weatherlink.com 1.10,2013-04-25 14:49:00,
2013-04-25 11:04:00,58.9,37.0,30.29,NW,319,4.0,-999.0,44,-99.99,,,0.00,weatherlink.com 1.10,2013-04-25 15:04:00,
2013-04-25 11:19:00,58.9,37.0,30.29,ENE,58,2.0,-999.0,45,-99.99,,,0.00,weatherlink.com 1.10,2013-04-25 15:19:00,
2013-04-25 11:34:00,60.1,36.0,30.29,West,260,4.0,-999.0,41,-99.99,,,0.00,weatherlink.com 1.10,2013-04-25 15:34:00,
2013-04-25 11:49:00,59.3,32.0,30.29,West,259,4.0,-999.0,36,-99.99,,,0.00,weatherlink.com 1.10,2013-04-25 15:49:00,
2013-04-25 12:04:00,62.7,38.0,30.29,West,266,4.0,-999.0,40,-99.99,,,0.00,weatherlink.com 1.10,2013-04-25 16:04:00,
2013-04-25 12:19:00,62.0,35.0,30.29,West,260,2.0,-999.0,36,-99.99,,,0.00,weatherlink.com 1.10,2013-04-25 16:19:00,
2013-04-25 12:34:00,64.2,37.0,30.29,SE,144,1.0,-999.0,36,-99.99,,,0.00,weatherlink.com 1.10,2013-04-25 16:34:00,
2013-04-25 12:49:00,66.2,36.0,30.29,SE,146,8.0,-999.0,33,-99.99,,,0.00,weatherlink.com 1.10,2013-04-25 16:49:00,
2013-04-25 13:04:00,64.8,33.0,30.29,NE,46,6.0,-999.0,31,-99.99,,,0.00,weatherlink.com 1.10,2013-04-25 17:04:00,
2013-04-25 13:19:00,65.5,31.0,30.29,WSW,245,3.0,-999.0,28,-99.99,,,0.00,weatherlink.com 1.10,2013-04-25 17:19:00,
2013-04-25 13:34:00,66.4,27.0,30.29,WNW,284,0.0,-999.0,23,-99.99,,,0.00,weatherlink.com 1.10,2013-04-25 17:34:00,
2013-04-25 13:49:00,66.8,22.0,30.29,West,274,9.0,-999.0,18,-99.99,,,0.00,weatherlink.com 1.10,2013-04-25 17:49:00,
2013-04-25 14:04:00,66.0,22.0,30.28,North,359,3.0,-999.0,19,-99.99,,,0.00,weatherlink.com 1.10,2013-04-25 18:04:00,
2013-04-25 14:19:00,68.0,17.0,30.28,NNE,15,4.0,-999.0,14,-99.99,,,0.00,weatherlink.com 1.10,2013-04-25 18:19:00,
2013-04-25 14:34:00,67.4,18.0,30.28,West,264,9.0,-999.0,15,-99.99,,,0.00,weatherlink.com 1.10,2013-04-25 18:34:00,
2013-04-25 14:49:00,67.1,22.0,30.28,NNE,27,6.0,-999.0,18,-99.99,,,0.00,weatherlink.com 1.10,2013-04-25 18:49:00,
2013-04-25 15:04:00,67.7,21.0,30.28,WNW,286,2.0,-999.0,17,-99.99,,,0.00,weatherlink.com 1.10,2013-04-25 19:04:00,
2013-04-25 15:19:00,69.8,20.0,30.27,WNW,288,2.0,-999.0,15,-99.99,,,0.00,weatherlink.com 1.10,2013-04-25 19:19:00,
2013-04-25 15:34:00,68.6,17.0,30.27,WSW,243,2.0,-999.0,14,-99.99,,,0.00,weatherlink.com 1.10,2013-04-25 19:34:00,
2013-04-25 15:49:00,68.5,19.0,30.27,WNW,287,2.0,-999.0,15,-99.99,,,0.00,weatherlink.com 1.10,2013-04-25 19:49:00,
2013-04-25 16:04:00,70.7,22.0,30.26,SSE,167,3.0,-999.0,16,-99.99,,,0.00,weatherlink.com 1.10,2013-04-25 20:04:00,
2013-04-25 16:19:00,69.6,23.0,30.26,SSE,156,4.0,-999.0,17,-99.99,,,0.00,weatherlink.com 1.10,2013-04-25 20:19:00,
2013-04-25 16:34:00,69.2,22.0,30.25,WSW,242,4.0,-999.0,17,-99.99,,,0.00,weatherlink.com 1.10,2013-04-25 20:34:00,
2013-04-25 16:49:00,70.1,23.0,30.24,ESE,111,3.0,-999.0,17,-99.99,,,0.00,weatherlink.com 1.10,2013-04-25 20:49:00,
2013-04-25 17:04:00,70.9,22.0,30.25,SSW,206,2.0,-999.0,16,-99.99,,,0.00,weatherlink.com 1.10,2013-04-25 21:04:00,
2013-04-25 17:19:00,71.7,25.0,30.25,SSE,162,0.0,-999.0,17,-99.99,,,0.00,weatherlink.com 1.10,2013-04-25 21:19:00,
2013-04-25 17:34:00,71.6,28.0,30.25,South,191,3.0,-999.0,20,-99.99,,,0.00,weatherlink.com 1.10,2013-04-25 21:34:00,
2013-04-25 17:49:00,70.7,32.0,30.25,WNW,300,4.0,-999.0,24,-99.99,,,0.00,weatherlink.com 1.10,2013-04-25 21:49:00,
2013-04-25 18:04:00,71.2,34.0,30.26,SW,221,2.0,-999.0,25,-99.99,,,0.00,weatherlink.com 1.10,2013-04-25 22:04:00,
2013-04-25 18:19:00,69.5,25.0,30.26,WNW,302,2.0,-999.0,19,-99.99,,,0.00,weatherlink.com 1.10,2013-04-25 22:19:00,
2013-04-25 18:34:00,66.9,23.0,30.26,NW,314,3.0,-999.0,19,-99.99,,,0.00,weatherlink.com 1.10,2013-04-25 22:34:00,
2013-04-25 18:49:00,66.0,24.0,30.27,WNW,301,5.0,-999.0,20,-99.99,,,0.00,weatherlink.com 1.10,2013-04-25 22:49:00,
2013-04-25 19:04:00,65.4,24.0,30.27,NNW,346,7.0,-999.0,21,-99.99,,,0.00,weatherlink.com 1.10,2013-04-25 23:04:00,
2013-04-25 19:19:00,64.2,24.0,30.27,WNW,289,5.0,-999.0,22,-99.99,,,0.00,weatherlink.com 1.10,2013-04-25 23:19:00,
2013-04-25 19:34:00,63.2,24.0,30.28,ENE,77,9.0,-999.0,22,-99.99,,,0.00,weatherlink.com 1.10,2013-04-25 23:34:00,
2013-04-25 19:49:00,62.0,24.0,30.28,NNW,345,9.0,-999.0,23,-99.99,,,0.00,weatherlink.com 1.10,2013-04-25 23:49:00,
2013-04-25 20:04:00,60.5,23.0,30.28,NNE,26,11.0,-999.0,24,-99.99,,,0.00,weatherlink.com 1.10,2013-04-26 00:04:00,
2013-04-25 20:19:00,59.4,21.0,30.28,NNW,335,8.0,-999.0,23,-99.99,,,0.00,weatherlink.com 1.10,2013-04-26 00:19:00,
2013-04-25 20:34:00,58.7,23.0,30.29,WNW,290,5.0,-999.0,25,-99.99,,,0.00,weatherlink.com 1.10,2013-04-26 00:34:00,
2013-04-25 20:49:00,58.0,22.0,30.29,NW,324,11.0,-999.0,25,-99.99,,,0.00,weatherlink.com 1.10,2013-04-26 00:49:00,
2013-04-25 21:04:00,57.4,21.0,30.29,NW,318,9.0,-999.0,24,-99.99,,,0.00,weatherlink.com 1.10,2013-04-26 01:04:00,
2013-04-25 21:19:00,56.8,20.0,30.30,NW,323,4.0,-999.0,24,-99.99,,,0.00,weatherlink.com 1.10,2013-04-26 01:19:00,
2013-04-25 21:34:00,56.4,20.0,30.30,NNW,331,6.0,-999.0,24,-99.99,,,0.00,weatherlink.com 1.10,2013-04-26 01:34:00,
2013-04-25 21:49:00,55.9,22.0,30.31,NW,312,11.0,-999.0,27,-99.99,,,0.00,weatherlink.com 1.10,2013-04-26 01:49:00,
2013-04-25 22:04:00,55.4,24.0,30.32,NW,315,13.0,-999.0,30,-99.99,,,0.00,weatherlink.com 1.10,2013-04-26 02:04:00,
2013-04-25 22:19:00,54.9,25.0,30.32,NNW,335,10.0,-999.0,31,-99.99,,,0.00,weatherlink.com 1.10,2013-04-26 02:19:00,
2013-04-25 22:34:00,54.6,27.0,30.32,NW,315,17.0,-999.0,34,-99.99,,,0.00,weatherlink.com 1.10,2013-04-26 02:34:00,
2013-04-25 22:49:00,54.1,27.0,30.33,NNW,347,14.0,-999.0,36,-99.99,,,0.00,weatherlink.com 1.10,2013-04-26 02:49:00,
2013-04-25 23:04:00,53.7,28.0,30.33,NW,309,8.0,-999.0,38,-99.99,,,0.00,weatherlink.com 1.10,2013-04-26 03:04:00,
2013-04-25 23:19:00,53.5,29.0,30.33,West,266,7.0,-999.0,39,-99.99,,,0.00,weatherlink.com 1.10,2013-04-26 03:19:00,
2013-04-25 23:34:00,53.4,29.0,30.33,NNW,333,16.0,-999.0,39,-99.99,,,0.00,weatherlink.com 1.10,2013-04-26 03:34:00,
2013-04-25 23:49:00,53.2,29.0,30.34,NNW,340,12.0,-999.0,39,-99.99,,,0.00,weatherlink.com 1.10,2013-04-26 03:49:00,